Mentmore, New Mexico
Current Conditions -  °F | °C
As of 11:53 AM on Thursday 23 Oct 2014 (Local Time) from KGUP Reporting Station
Clear Clear  
Wind Chill: 62°   Ceiling: Unl
Heat Index: 62°   Visibility: 10mi
Dew Point: 34°   Wind: 3mph
Humidity: 35%   Direction: 240°WSW
Pressure: 30.36"   Gusts: NA
Location:  35.51°N, 108.85°W
Report Text: KGUP 231753Z AUTO 24003KT 10SM CLR 17/01 A3036 RMK AO2 SLP190 T01670011 10167 20006 50005
Loading
Personal Weather Stations






























Interactive Weather Map
Tropical Storm Tracking
New forecast layout! Learn more

10-Day Weather Forecast

Advertisements
Track Severe Weather on mobile